createdAt,value
2019-03-26T00:01:06.417Z,8.87
2019-03-26T00:03:34.876Z,10.80
2019-03-26T00:06:03.260Z,10.97
2019-03-26T00:08:31.639Z,8.93
2019-03-26T00:11:00.025Z,8.57
2019-03-26T00:13:28.412Z,7.90
2019-03-26T00:15:56.853Z,8.07
2019-03-26T00:18:25.232Z,8.20
2019-03-26T00:20:53.618Z,5.63
2019-03-26T00:23:22.000Z,5.17
2019-03-26T00:25:50.386Z,6.30
2019-03-26T00:28:18.766Z,6.17
2019-03-26T00:30:47.148Z,4.00
2019-03-26T00:33:15.525Z,4.73
2019-03-26T00:35:43.904Z,6.13
2019-03-26T00:38:12.282Z,4.57
2019-03-26T00:40:40.660Z,6.87
2019-03-26T00:43:09.040Z,5.17
2019-03-26T00:45:37.422Z,6.57
2019-03-26T00:48:05.807Z,4.77
2019-03-26T00:50:34.206Z,5.57
2019-03-26T00:53:02.591Z,5.20
2019-03-26T00:55:31.968Z,6.77
2019-03-26T00:58:01.807Z,5.27
2019-03-26T01:00:38.036Z,5.90
2019-03-26T01:03:06.837Z,4.57
2019-03-26T01:05:35.290Z,5.90
2019-03-26T01:08:03.849Z,7.77
2019-03-26T01:10:32.232Z,5.53
2019-03-26T01:13:00.684Z,6.43
2019-03-26T01:15:29.065Z,4.97
2019-03-26T01:17:57.461Z,5.67
2019-03-26T01:20:25.840Z,6.00
2019-03-26T01:22:54.231Z,5.77
2019-03-26T01:25:22.614Z,8.07
2019-03-26T01:27:50.988Z,7.70
2019-03-26T01:30:19.371Z,6.97
2019-03-26T01:32:47.748Z,6.77
2019-03-26T01:35:16.134Z,7.77
2019-03-26T01:37:44.514Z,6.30
2019-03-26T01:40:13.035Z,7.27
2019-03-26T01:42:41.419Z,7.27
2019-03-26T01:45:09.951Z,8.87
2019-03-26T01:47:38.331Z,7.73
2019-03-26T01:50:06.902Z,12.30
2019-03-26T01:52:35.287Z,10.37
2019-03-26T01:55:05.518Z,7.20
2019-03-26T01:57:33.929Z,10.20
2019-03-26T02:00:03.140Z,9.23
2019-03-26T02:02:31.522Z,10.10
2019-03-26T02:05:00.688Z,9.27
2019-03-26T02:07:29.275Z,10.40
2019-03-26T02:09:57.662Z,12.50
2019-03-26T02:12:26.049Z,11.77
2019-03-26T02:14:54.444Z,12.30
2019-03-26T02:17:22.901Z,14.13
2019-03-26T02:19:51.349Z,11.67
2019-03-26T02:22:19.737Z,15.73
2019-03-26T02:24:48.129Z,15.13
2019-03-26T02:27:16.676Z,13.03
2019-03-26T02:29:45.064Z,10.07
2019-03-26T02:32:13.448Z,13.67
2019-03-26T02:34:41.846Z,14.20
2019-03-26T02:37:11.347Z,13.33
2019-03-26T02:39:39.737Z,11.03
2019-03-26T02:42:08.137Z,11.43
2019-03-26T02:44:36.557Z,15.33
2019-03-26T02:47:04.933Z,12.53
2019-03-26T02:49:33.335Z,15.10
2019-03-26T02:52:01.829Z,15.17
2019-03-26T02:54:30.228Z,16.37
2019-03-26T02:56:58.600Z,15.80
2019-03-26T02:59:27.009Z,13.27
2019-03-26T03:01:55.456Z,14.60
2019-03-26T03:04:23.844Z,13.17
2019-03-26T03:06:52.243Z,16.00
2019-03-26T03:09:20.617Z,12.47
2019-03-26T03:11:49.011Z,15.57
2019-03-26T03:14:17.396Z,15.97
2019-03-26T03:16:45.773Z,16.87
2019-03-26T03:19:16.140Z,15.13
2019-03-26T03:21:44.280Z,16.73
2019-03-26T03:24:12.667Z,16.20
2019-03-26T03:26:41.048Z,13.20
2019-03-26T03:29:09.463Z,12.53
2019-03-26T03:31:37.825Z,15.47
2019-03-26T03:34:06.262Z,16.10
2019-03-26T03:36:34.681Z,13.60
2019-03-26T03:39:04.418Z,13.83
2019-03-26T03:41:32.797Z,13.17
2019-03-26T03:44:01.250Z,13.07
2019-03-26T03:46:29.902Z,14.37
2019-03-26T03:48:59.127Z,15.10
2019-03-26T03:51:29.857Z,14.53
2019-03-26T03:53:58.906Z,13.93
2019-03-26T03:56:28.812Z,16.13
2019-03-26T03:58:59.230Z,14.33
2019-03-26T04:01:27.618Z,16.93
2019-03-26T04:03:56.004Z,14.17
2019-03-26T04:06:24.482Z,17.53
2019-03-26T04:08:52.868Z,15.47
2019-03-26T04:11:21.254Z,14.07
2019-03-26T04:13:49.683Z,15.13
2019-03-26T04:16:18.071Z,14.93
2019-03-26T04:18:46.455Z,15.73
2019-03-26T04:21:14.853Z,16.63
2019-03-26T04:23:43.247Z,16.40
2019-03-26T04:26:11.640Z,17.37
2019-03-26T04:28:40.034Z,16.87
2019-03-26T04:31:08.424Z,18.47
2019-03-26T04:33:36.816Z,17.00
2019-03-26T04:36:05.216Z,17.20
2019-03-26T04:38:33.614Z,17.40
2019-03-26T04:41:01.994Z,18.63
2019-03-26T04:43:30.466Z,17.83
2019-03-26T04:45:58.854Z,19.90
2019-03-26T04:48:27.262Z,19.30
2019-03-26T04:50:55.696Z,20.47
2019-03-26T04:53:24.080Z,17.00
2019-03-26T04:55:52.475Z,17.37
2019-03-26T04:58:20.868Z,19.07
2019-03-26T05:00:49.265Z,20.23
2019-03-26T05:03:17.742Z,18.27
2019-03-26T05:05:46.121Z,22.93
2019-03-26T05:08:14.737Z,21.00
2019-03-26T05:10:43.174Z,21.17
2019-03-26T05:13:11.586Z,21.43
2019-03-26T05:15:39.959Z,22.17
2019-03-26T05:18:08.383Z,22.80
2019-03-26T05:20:36.821Z,23.67
2019-03-26T05:23:05.212Z,23.67
2019-03-26T05:25:33.601Z,22.40
2019-03-26T05:28:02.038Z,23.53
2019-03-26T05:30:33.012Z,22.67
2019-03-26T05:33:00.557Z,23.50
2019-03-26T05:35:28.995Z,21.70
2019-03-26T05:37:57.435Z,21.03
2019-03-26T05:40:25.775Z,23.57
2019-03-26T05:42:54.168Z,23.37
2019-03-26T05:45:22.576Z,21.83
2019-03-26T05:47:50.971Z,21.67
2019-03-26T05:50:19.370Z,20.00
2019-03-26T05:52:47.759Z,99.53
2019-03-26T05:55:16.192Z,29.10
2019-03-26T05:57:44.588Z,26.90
2019-03-26T06:00:15.859Z,24.87
2019-03-26T06:02:44.244Z,23.50
2019-03-26T06:05:12.655Z,22.10
2019-03-26T06:07:41.048Z,23.50
2019-03-26T06:10:11.453Z,22.33
2019-03-26T06:12:39.915Z,23.80
2019-03-26T06:15:09.264Z,23.53
2019-03-26T06:17:37.714Z,22.63
2019-03-26T06:20:08.339Z,25.80
2019-03-26T06:22:36.723Z,21.40
2019-03-26T06:25:08.266Z,25.47
2019-03-26T06:27:36.745Z,23.87
2019-03-26T06:30:07.515Z,25.03
2019-03-26T06:32:35.909Z,25.17
2019-03-26T06:35:06.549Z,27.83
2019-03-26T06:37:35.004Z,25.63
2019-03-26T06:40:04.397Z,24.07
2019-03-26T06:42:32.776Z,22.97
2019-03-26T06:45:01.165Z,23.17
2019-03-26T06:47:29.550Z,21.97
2019-03-26T06:49:58.839Z,23.43
2019-03-26T06:52:27.224Z,23.27
2019-03-26T06:54:55.641Z,22.60
2019-03-26T06:57:35.046Z,23.90
2019-03-26T06:59:54.263Z,26.40
2019-03-26T07:02:22.718Z,22.83
2019-03-26T07:04:51.112Z,24.10
2019-03-26T07:07:30.888Z,23.90
2019-03-26T07:09:49.659Z,23.40
2019-03-26T07:12:18.049Z,21.73
2019-03-26T07:14:46.445Z,24.63
2019-03-26T07:17:14.839Z,23.30
2019-03-26T07:19:43.238Z,23.07
2019-03-26T07:22:11.627Z,23.90
2019-03-26T07:24:40.024Z,24.40
2019-03-26T07:27:08.416Z,22.47
2019-03-26T07:29:36.882Z,22.07
2019-03-26T07:32:05.263Z,22.00
2019-03-26T07:34:33.660Z,23.67
2019-03-26T07:37:02.056Z,21.67
2019-03-26T07:39:30.451Z,24.23
2019-03-26T07:41:58.902Z,22.43
2019-03-26T07:44:27.291Z,23.67
2019-03-26T07:46:55.758Z,22.30
2019-03-26T07:49:24.148Z,21.90
2019-03-26T07:51:52.619Z,21.83
2019-03-26T07:54:21.000Z,20.70
2019-03-26T07:56:49.407Z,24.87
2019-03-26T07:59:17.792Z,27.13
2019-03-26T08:01:46.171Z,30.47
2019-03-26T08:04:14.570Z,30.17
2019-03-26T08:06:43.072Z,24.43
2019-03-26T08:09:11.524Z,23.57
2019-03-26T08:11:39.880Z,23.63
2019-03-26T08:14:08.276Z,23.77
2019-03-26T08:16:36.671Z,21.57
2019-03-26T08:19:05.139Z,24.30
2019-03-26T08:21:33.534Z,23.60
2019-03-26T08:24:01.995Z,21.80
2019-03-26T08:26:30.412Z,25.10
2019-03-26T08:29:00.956Z,21.57
2019-03-26T08:31:28.916Z,23.87
2019-03-26T08:33:57.319Z,21.90
2019-03-26T08:36:25.802Z,23.57
2019-03-26T08:38:54.205Z,25.57
2019-03-26T08:41:22.596Z,20.93
2019-03-26T08:43:50.987Z,24.70
2019-03-26T08:46:19.387Z,31.93
2019-03-26T08:48:47.777Z,22.90
2019-03-26T08:51:16.237Z,29.17
2019-03-26T08:53:44.909Z,21.60
2019-03-26T08:56:13.309Z,21.50
2019-03-26T08:58:41.720Z,18.53
2019-03-26T09:01:10.324Z,21.87
2019-03-26T09:03:38.712Z,18.73
2019-03-26T09:06:07.228Z,18.13
2019-03-26T09:08:35.612Z,18.57
2019-03-26T09:11:04.085Z,17.37
2019-03-26T09:13:32.484Z,17.50
2019-03-26T09:16:00.882Z,16.03
2019-03-26T09:18:29.356Z,18.83
2019-03-26T09:20:57.745Z,18.13
2019-03-26T09:23:26.169Z,15.43
2019-03-26T09:25:54.543Z,22.03
2019-03-26T09:28:22.959Z,15.73
2019-03-26T09:30:51.455Z,15.93
2019-03-26T09:33:19.845Z,15.40
2019-03-26T09:35:48.274Z,12.77
2019-03-26T09:38:16.638Z,13.83
2019-03-26T09:40:45.163Z,11.27
2019-03-26T09:43:13.628Z,6.93
2019-03-26T09:45:42.086Z,7.23
2019-03-26T09:48:10.474Z,7.33
2019-03-26T09:50:38.855Z,5.20
2019-03-26T09:53:07.235Z,6.03
2019-03-26T09:55:35.685Z,6.90
2019-03-26T09:58:05.396Z,2.47
2019-03-26T10:00:33.827Z,3.47
2019-03-26T10:03:02.401Z,4.20
2019-03-26T10:05:30.752Z,6.17
2019-03-26T10:07:59.144Z,3.80
2019-03-26T10:10:27.527Z,4.17
2019-03-26T10:12:55.919Z,4.70
2019-03-26T10:15:24.314Z,6.17
2019-03-26T10:17:52.714Z,5.33
2019-03-26T10:20:21.490Z,5.87
2019-03-26T10:22:49.935Z,4.30
2019-03-26T10:25:18.384Z,3.77
2019-03-26T10:27:48.987Z,4.07
2019-03-26T10:30:20.408Z,3.80
2019-03-26T10:32:48.922Z,3.40
2019-03-26T10:35:17.305Z,4.23
2019-03-26T10:37:45.709Z,3.87
2019-03-26T10:40:17.650Z,3.90
2019-03-26T10:42:46.329Z,4.33
2019-03-26T10:45:14.854Z,4.30
2019-03-26T10:47:43.719Z,4.73
2019-03-26T10:50:12.294Z,5.07
2019-03-26T10:52:40.633Z,7.40
2019-03-26T10:55:09.407Z,5.63
2019-03-26T10:57:38.784Z,5.47
2019-03-26T11:00:07.714Z,5.53
2019-03-26T11:02:36.092Z,6.63
2019-03-26T11:05:06.208Z,6.33
2019-03-26T11:07:34.632Z,7.80
2019-03-26T11:10:03.275Z,6.93
2019-03-26T11:12:31.680Z,7.77
2019-03-26T11:15:00.152Z,7.93
2019-03-26T11:17:28.744Z,6.53
2019-03-26T11:19:57.137Z,11.60
2019-03-26T11:22:26.502Z,6.97
2019-03-26T11:24:54.884Z,7.40
2019-03-26T11:27:23.271Z,9.73
2019-03-26T11:29:51.653Z,5.63
2019-03-26T11:32:20.179Z,5.97
2019-03-26T11:34:48.562Z,6.33
2019-03-26T11:37:17.003Z,5.37
2019-03-26T11:39:45.794Z,6.13
2019-03-26T11:42:14.254Z,10.50
2019-03-26T11:44:42.655Z,6.53
2019-03-26T11:47:11.099Z,7.00
2019-03-26T11:49:39.481Z,7.67
2019-03-26T11:52:08.833Z,4.57
2019-03-26T11:54:37.227Z,9.23
2019-03-26T11:57:05.671Z,9.00
2019-03-26T11:59:34.051Z,5.47
2019-03-26T12:02:02.440Z,5.90
2019-03-26T12:04:30.855Z,7.73
2019-03-26T12:06:59.232Z,6.63
2019-03-26T12:09:27.648Z,7.30
2019-03-26T12:11:56.592Z,8.00
2019-03-26T12:14:24.985Z,7.73
2019-03-26T12:16:53.408Z,6.90
2019-03-26T12:19:21.794Z,5.67
2019-03-26T12:21:50.179Z,10.10
2019-03-26T12:24:18.567Z,8.07
2019-03-26T12:26:47.022Z,8.20
2019-03-26T12:29:15.550Z,12.97
2019-03-26T12:31:44.758Z,10.07
2019-03-26T12:34:13.233Z,7.30
2019-03-26T12:36:41.686Z,13.70
2019-03-26T12:39:10.649Z,7.90
2019-03-26T12:41:39.127Z,9.53
2019-03-26T12:44:07.520Z,8.70
2019-03-26T12:46:35.914Z,9.33
2019-03-26T12:49:04.318Z,10.03
2019-03-26T12:51:32.702Z,8.53
2019-03-26T12:54:01.163Z,8.23
2019-03-26T12:56:29.697Z,10.27
2019-03-26T12:58:58.090Z,11.07
2019-03-26T13:01:27.396Z,10.53
2019-03-26T13:03:56.078Z,7.33
2019-03-26T13:06:25.596Z,12.90
2019-03-26T13:08:53.997Z,11.07
2019-03-26T13:11:22.517Z,8.97
2019-03-26T13:13:51.239Z,9.17
2019-03-26T13:16:19.731Z,17.83
2019-03-26T13:18:48.435Z,11.87
2019-03-26T13:21:16.817Z,8.73
2019-03-26T13:23:45.785Z,6.67
2019-03-26T13:26:15.446Z,6.87
2019-03-26T13:28:43.880Z,7.97
2019-03-26T13:31:12.281Z,17.43
2019-03-26T13:33:40.750Z,13.83
2019-03-26T13:36:09.144Z,12.50
2019-03-26T13:38:38.915Z,7.57
2019-03-26T13:41:07.366Z,11.67
2019-03-26T13:43:35.774Z,7.73
2019-03-26T13:46:04.273Z,21.83
2019-03-26T13:48:32.705Z,11.73
2019-03-26T13:51:01.088Z,9.90
2019-03-26T13:53:29.474Z,7.60
2019-03-26T13:55:57.863Z,16.90
2019-03-26T13:58:26.524Z,11.03
2019-03-26T14:00:55.084Z,7.03
2019-03-26T14:03:23.476Z,7.53
2019-03-26T14:05:51.939Z,20.80
2019-03-26T14:08:20.403Z,12.90
2019-03-26T14:10:48.814Z,10.93
2019-03-26T14:13:17.271Z,14.50
2019-03-26T14:15:45.671Z,10.13
2019-03-26T14:18:15.024Z,8.73
2019-03-26T14:20:43.488Z,7.67
2019-03-26T14:23:11.867Z,10.07
2019-03-26T14:25:40.277Z,7.33
2019-03-26T14:28:09.495Z,19.53
2019-03-26T14:30:42.387Z,13.43
2019-03-26T14:33:11.844Z,9.33
2019-03-26T14:35:41.202Z,15.40
2019-03-26T14:38:09.738Z,6.90
2019-03-26T14:40:38.348Z,6.80
2019-03-26T14:43:07.130Z,9.97
2019-03-26T14:45:35.611Z,8.60
2019-03-26T14:48:04.278Z,11.10
2019-03-26T14:50:32.703Z,36.73
2019-03-26T14:53:01.196Z,9.23
2019-03-26T14:55:29.690Z,8.07
2019-03-26T14:57:58.143Z,17.43
2019-03-26T15:00:27.854Z,10.17
2019-03-26T15:02:57.523Z,10.83
2019-03-26T15:05:26.219Z,7.60
2019-03-26T15:07:54.613Z,8.23
2019-03-26T15:10:23.557Z,8.60
2019-03-26T15:12:52.456Z,9.07
2019-03-26T15:15:20.835Z,8.33
2019-03-26T15:17:49.245Z,9.77
2019-03-26T15:20:17.748Z,8.27
2019-03-26T15:22:46.146Z,9.00
2019-03-26T15:25:14.535Z,11.00
2019-03-26T15:27:42.931Z,12.63
2019-03-26T15:30:13.226Z,8.47
2019-03-26T15:32:41.742Z,9.50
2019-03-26T15:35:10.990Z,12.70
2019-03-26T15:37:39.357Z,10.30
2019-03-26T15:40:08.972Z,9.10
2019-03-26T15:42:37.366Z,8.73
2019-03-26T15:45:07.285Z,9.37
2019-03-26T15:47:35.683Z,7.73
2019-03-26T15:50:06.047Z,8.27
2019-03-26T15:52:34.448Z,14.67
2019-03-26T15:55:02.902Z,6.70
2019-03-26T15:57:32.497Z,9.13
2019-03-26T16:00:00.858Z,9.27
2019-03-26T16:02:29.241Z,8.13
2019-03-26T16:04:57.620Z,7.97
2019-03-26T16:07:26.006Z,6.23
2019-03-26T16:09:54.390Z,5.97
2019-03-26T16:12:22.818Z,6.37
2019-03-26T16:14:51.212Z,5.73
2019-03-26T16:17:19.588Z,8.70
2019-03-26T16:19:47.962Z,5.30
2019-03-26T16:22:17.795Z,8.33
2019-03-26T16:24:46.398Z,5.70
2019-03-26T16:27:14.785Z,4.90
2019-03-26T16:29:43.246Z,8.20
2019-03-26T16:32:11.629Z,6.13
2019-03-26T16:34:40.074Z,8.93
2019-03-26T16:37:08.485Z,5.77
2019-03-26T16:39:36.863Z,6.20
2019-03-26T16:42:05.253Z,6.70
2019-03-26T16:44:33.644Z,5.77
2019-03-26T16:47:02.026Z,4.93
2019-03-26T16:49:30.413Z,5.07
2019-03-26T16:51:58.878Z,6.27
2019-03-26T16:54:27.256Z,4.80
2019-03-26T16:56:55.640Z,4.90
2019-03-26T16:59:24.022Z,4.90
2019-03-26T17:01:52.426Z,5.53
2019-03-26T17:04:27.590Z,6.00
2019-03-26T17:06:56.103Z,5.73
2019-03-26T17:09:24.499Z,5.90
2019-03-26T17:12:02.997Z,4.70
2019-03-26T17:14:23.103Z,6.03
2019-03-26T17:16:51.563Z,4.50
2019-03-26T17:19:19.983Z,7.83
2019-03-26T17:21:49.434Z,9.20
2019-03-26T17:24:17.917Z,6.53
2019-03-26T17:26:46.356Z,7.57
2019-03-26T17:29:14.841Z,10.93
2019-03-26T17:31:43.226Z,7.27
2019-03-26T17:34:11.687Z,8.73
2019-03-26T17:36:40.144Z,8.30
2019-03-26T17:39:09.275Z,9.37
2019-03-26T17:41:37.675Z,8.40
2019-03-26T17:44:06.147Z,7.17
2019-03-26T17:46:34.596Z,9.27
2019-03-26T17:49:02.988Z,7.40
2019-03-26T17:51:33.298Z,8.83
2019-03-26T17:54:04.458Z,10.93
2019-03-26T17:56:36.990Z,11.87
2019-03-26T17:59:05.426Z,7.60
2019-03-26T18:01:33.858Z,8.40
2019-03-26T18:04:02.386Z,9.83
2019-03-26T18:06:30.785Z,9.33
2019-03-26T18:08:59.181Z,9.57
2019-03-26T18:11:27.635Z,7.13
2019-03-26T18:13:56.016Z,8.17
2019-03-26T18:16:24.414Z,8.03
2019-03-26T18:18:55.032Z,8.00
2019-03-26T18:21:22.995Z,8.60
2019-03-26T18:23:51.380Z,7.70
2019-03-26T18:26:19.795Z,6.47
2019-03-26T18:28:48.140Z,8.57
2019-03-26T18:31:16.525Z,10.13
2019-03-26T18:33:44.910Z,11.43
2019-03-26T18:36:13.282Z,9.73
2019-03-26T18:38:41.665Z,10.50
2019-03-26T18:41:11.686Z,10.33
2019-03-26T18:43:40.113Z,9.10
2019-03-26T18:46:08.575Z,10.00
2019-03-26T18:48:36.997Z,8.70
2019-03-26T18:51:07.299Z,10.47
2019-03-26T18:53:35.683Z,8.57
2019-03-26T18:56:04.088Z,11.67
2019-03-26T18:58:32.463Z,12.43
2019-03-26T19:01:00.907Z,12.20
2019-03-26T19:03:29.400Z,10.77
2019-03-26T19:05:57.837Z,13.27
2019-03-26T19:08:27.276Z,12.80
2019-03-26T19:10:55.663Z,13.67
2019-03-26T19:13:24.068Z,12.40
2019-03-26T19:15:52.485Z,13.57
2019-03-26T19:18:20.888Z,13.20
2019-03-26T19:21:01.531Z,12.87
2019-03-26T19:23:22.275Z,12.73
2019-03-26T19:25:50.665Z,14.30
2019-03-26T19:28:19.078Z,13.37
2019-03-26T19:30:47.455Z,12.93
2019-03-26T19:33:15.864Z,14.43
2019-03-26T19:35:44.322Z,16.13
2019-03-26T19:38:12.709Z,12.23
2019-03-26T19:40:41.098Z,13.67
2019-03-26T19:43:11.135Z,16.77
2019-03-26T19:45:39.582Z,13.33
2019-03-26T19:48:09.943Z,14.57
2019-03-26T19:50:38.347Z,14.57
2019-03-26T19:53:07.793Z,12.23
2019-03-26T19:55:36.180Z,14.50
2019-03-26T19:58:04.672Z,15.50
2019-03-26T20:00:33.041Z,13.10
2019-03-26T20:03:01.418Z,14.23
2019-03-26T20:05:29.807Z,12.00
2019-03-26T20:07:58.211Z,12.77
2019-03-26T20:10:26.709Z,16.40
2019-03-26T20:12:55.133Z,16.17
2019-03-26T20:15:23.591Z,14.23
2019-03-26T20:17:52.057Z,13.23
2019-03-26T20:20:20.512Z,17.00
2019-03-26T20:22:48.899Z,17.93
2019-03-26T20:25:17.349Z,13.73
2019-03-26T20:27:45.804Z,15.47
2019-03-26T20:30:17.633Z,17.37
2019-03-26T20:32:46.039Z,17.37
2019-03-26T20:35:15.872Z,15.50
2019-03-26T20:37:44.262Z,18.03
2019-03-26T20:40:13.093Z,16.73
2019-03-26T20:42:42.462Z,13.13
2019-03-26T20:45:14.413Z,18.47
2019-03-26T20:47:44.043Z,14.50
2019-03-26T20:50:14.590Z,17.13
2019-03-26T20:52:43.967Z,14.13
2019-03-26T20:55:17.708Z,17.00
2019-03-26T20:57:46.448Z,17.13
2019-03-26T21:00:17.218Z,18.17
2019-03-26T21:02:45.611Z,19.37
2019-03-26T21:05:17.032Z,16.60
2019-03-26T21:07:47.804Z,17.50
2019-03-26T21:10:15.628Z,19.17
2019-03-26T21:12:44.024Z,16.93
2019-03-26T21:15:12.723Z,14.00
2019-03-26T21:17:41.111Z,18.37
2019-03-26T21:20:10.250Z,14.70
2019-03-26T21:22:38.624Z,15.70
2019-03-26T21:25:09.962Z,20.80
2019-03-26T21:27:39.570Z,20.20
2019-03-26T21:30:15.748Z,20.43
2019-03-26T21:32:44.404Z,19.17
2019-03-26T21:35:13.059Z,19.37
2019-03-26T21:37:41.456Z,16.47
2019-03-26T21:40:11.084Z,17.33
2019-03-26T21:42:39.477Z,20.00
2019-03-26T21:45:10.009Z,17.57
2019-03-26T21:47:39.336Z,19.03
2019-03-26T21:50:08.468Z,17.37
2019-03-26T21:52:36.853Z,16.67
2019-03-26T21:55:07.947Z,21.93
2019-03-26T21:57:43.301Z,18.30
2019-03-26T22:00:13.324Z,18.10
2019-03-26T22:02:41.717Z,18.27
2019-03-26T22:05:10.231Z,17.73
2019-03-26T22:07:39.577Z,17.93
2019-03-26T22:10:08.902Z,20.30
2019-03-26T22:12:37.298Z,21.10
2019-03-26T22:15:08.788Z,23.87
2019-03-26T22:17:37.314Z,19.40
2019-03-26T22:20:06.730Z,18.17
2019-03-26T22:22:36.170Z,16.70
2019-03-26T22:25:08.842Z,18.80
2019-03-26T22:27:37.342Z,20.30
2019-03-26T22:30:07.976Z,20.70
2019-03-26T22:32:36.372Z,25.00
2019-03-26T22:35:07.104Z,21.63
2019-03-26T22:37:39.503Z,23.50
2019-03-26T22:40:10.898Z,19.60
2019-03-26T22:42:39.361Z,22.90
2019-03-26T22:45:09.085Z,23.27
2019-03-26T22:47:39.211Z,27.77
2019-03-26T22:50:10.008Z,21.20
2019-03-26T22:52:38.464Z,22.43
2019-03-26T22:55:11.567Z,24.53
2019-03-26T22:57:39.962Z,24.53
2019-03-26T23:00:11.397Z,25.40
2019-03-26T23:02:39.782Z,27.47
2019-03-26T23:05:09.212Z,28.80
2019-03-26T23:07:37.601Z,27.63
2019-03-26T23:10:07.524Z,27.73
2019-03-26T23:12:35.913Z,27.27
2019-03-26T23:15:14.496Z,33.37
2019-03-26T23:17:42.947Z,29.47
2019-03-26T23:20:11.334Z,32.33
2019-03-26T23:22:39.738Z,33.73
2019-03-26T23:25:08.202Z,31.77
2019-03-26T23:27:36.588Z,33.07
2019-03-26T23:30:09.964Z,32.23
2019-03-26T23:32:38.415Z,30.90
2019-03-26T23:35:07.236Z,33.73
2019-03-26T23:37:35.630Z,34.97
2019-03-26T23:40:04.763Z,33.40
2019-03-26T23:42:33.148Z,39.57
2019-03-26T23:45:01.615Z,39.17
2019-03-26T23:47:30.023Z,34.07
2019-03-26T23:49:58.432Z,32.60
2019-03-26T23:52:26.814Z,34.97
2019-03-26T23:54:55.203Z,30.87
2019-03-26T23:57:23.595Z,36.23
2019-03-26T23:59:51.990Z,40.50
